Terminal Aerodrome Forecast
Issued by NWS Charleston, WV

Current Version | Previous Version | Graphics & Text | Print | Product List | Glossary On
Versions: 1 2 3 4 5 6 7 8 9 10 11 12 13 14 15 16 17 18 19 20 21 22 23 24 25 26 27 28 29 30
000
FTUS41 KRLX 181500 AAA
TAFBKW
TAF AMD
KBKW 181559Z 1816/1912 14008KT 3SM -SHRA BR SCT015 OVC025
     FM181800 16006KT 4SM BR BKN012 OVC025
     FM190000 25005KT 6SM BR OVC015
     FM190300 24004KT 1SM BR VCTS SCT003 OVC008CB
     FM190800 VRB03KT 1SM BR BKN003=

USA.gov is the U.S. government's official web portal to all federal, state and local government web resources and services.